createdAt,value
2023-04-30T00:00:47.015Z,9.89
2023-04-30T00:03:13.693Z,10.28
2023-04-30T00:05:40.837Z,10.37
2023-04-30T00:08:07.420Z,10.85
2023-04-30T00:10:34.205Z,11.26
2023-04-30T00:13:00.853Z,11.20
2023-04-30T00:15:27.432Z,11.13
2023-04-30T00:17:54.046Z,11.70
2023-04-30T00:20:20.711Z,10.65
2023-04-30T00:22:47.259Z,10.50
2023-04-30T00:25:13.843Z,11.47
2023-04-30T00:27:41.114Z,12.49
2023-04-30T00:30:08.171Z,12.15
2023-04-30T00:32:34.818Z,11.18
2023-04-30T00:35:01.446Z,11.45
2023-04-30T00:37:28.000Z,12.18
2023-04-30T00:39:54.819Z,12.02
2023-04-30T00:42:21.577Z,11.72
2023-04-30T00:44:48.150Z,12.59
2023-04-30T00:47:14.819Z,11.96
2023-04-30T00:49:41.626Z,12.29
2023-04-30T00:52:08.242Z,12.35
2023-04-30T00:54:34.854Z,12.30
2023-04-30T00:57:03.060Z,12.15
2023-04-30T00:59:30.215Z,11.81
2023-04-30T01:01:56.940Z,12.01
2023-04-30T01:04:24.280Z,12.02
2023-04-30T01:06:52.016Z,12.75
2023-04-30T01:09:19.099Z,12.70
2023-04-30T01:11:50.002Z,13.33
2023-04-30T01:14:29.023Z,12.86
2023-04-30T01:17:20.446Z,12.72
2023-04-30T01:19:47.634Z,12.61
2023-04-30T01:22:23.206Z,12.70
2023-04-30T01:25:17.121Z,12.90
2023-04-30T01:28:06.622Z,13.80
2023-04-30T01:30:34.489Z,13.96
2023-04-30T01:33:02.377Z,13.50
2023-04-30T01:35:44.307Z,13.65
2023-04-30T01:38:23.040Z,13.07
2023-04-30T01:41:11.989Z,13.40
2023-04-30T01:43:40.546Z,13.63
2023-04-30T01:46:27.530Z,14.26
2023-04-30T01:49:22.671Z,13.05
2023-04-30T01:52:01.339Z,14.31
2023-04-30T01:54:46.415Z,13.81
2023-04-30T01:57:32.188Z,14.45
2023-04-30T01:59:59.020Z,14.77
2023-04-30T02:02:25.813Z,14.67
2023-04-30T02:04:52.495Z,14.26
2023-04-30T02:07:38.098Z,13.31
2023-04-30T02:10:06.511Z,12.73
2023-04-30T02:12:33.185Z,12.77
2023-04-30T02:14:59.766Z,12.62
2023-04-30T02:17:26.407Z,13.21
2023-04-30T02:19:53.349Z,12.85
2023-04-30T02:22:20.317Z,12.61
2023-04-30T02:24:47.092Z,12.70
2023-04-30T02:27:13.793Z,13.49
2023-04-30T02:29:40.384Z,14.15
2023-04-30T02:32:07.057Z,14.22
2023-04-30T02:34:33.633Z,14.37
2023-04-30T02:37:00.798Z,14.22
2023-04-30T02:39:27.373Z,13.04
2023-04-30T02:41:53.919Z,13.60
2023-04-30T02:44:21.166Z,13.10
2023-04-30T02:46:47.711Z,12.83
2023-04-30T02:49:14.305Z,12.72
2023-04-30T02:51:40.869Z,12.55
2023-04-30T02:54:07.490Z,12.37
2023-04-30T02:56:34.611Z,12.32
2023-04-30T02:59:01.500Z,11.96
2023-04-30T03:01:28.111Z,11.68
2023-04-30T03:03:54.710Z,12.01
2023-04-30T03:06:21.705Z,12.44
2023-04-30T03:08:48.528Z,12.46
2023-04-30T03:11:15.266Z,12.76
2023-04-30T03:13:43.554Z,13.17
2023-04-30T03:16:11.164Z,13.39
2023-04-30T03:18:37.797Z,13.33
2023-04-30T03:21:04.518Z,12.95
2023-04-30T03:23:31.332Z,13.11
2023-04-30T03:25:58.058Z,13.36
2023-04-30T03:28:24.716Z,13.38
2023-04-30T03:30:51.337Z,12.87
2023-04-30T03:33:17.997Z,12.57
2023-04-30T03:35:44.770Z,13.00
2023-04-30T03:38:11.413Z,12.91
2023-04-30T03:40:38.201Z,12.48
2023-04-30T03:43:05.290Z,12.34
2023-04-30T03:45:31.993Z,12.01
2023-04-30T03:47:58.608Z,11.67
2023-04-30T03:50:26.062Z,11.86
2023-04-30T03:52:52.638Z,11.85
2023-04-30T03:55:19.294Z,12.60
2023-04-30T03:57:46.230Z,11.91
2023-04-30T04:00:16.252Z,12.43
2023-04-30T04:02:43.337Z,12.71
2023-04-30T04:05:09.958Z,12.26
2023-04-30T04:07:36.530Z,12.63
2023-04-30T04:10:03.626Z,12.41
2023-04-30T04:12:30.213Z,12.23
2023-04-30T04:14:56.819Z,12.92
2023-04-30T04:17:23.408Z,12.66
2023-04-30T04:19:50.029Z,12.82
2023-04-30T04:22:16.614Z,12.70
2023-04-30T04:24:43.254Z,12.58
2023-04-30T04:27:09.896Z,12.42
2023-04-30T04:29:36.776Z,12.46
2023-04-30T04:32:05.955Z,11.93
2023-04-30T04:34:33.113Z,12.14
2023-04-30T04:36:59.756Z,12.04
2023-04-30T04:39:26.296Z,12.35
2023-04-30T04:41:53.001Z,12.40
2023-04-30T04:44:19.600Z,12.07
2023-04-30T04:46:46.371Z,12.17
2023-04-30T04:49:13.119Z,12.77
2023-04-30T04:51:39.809Z,13.16
2023-04-30T04:54:06.568Z,13.03
2023-04-30T04:56:34.111Z,13.15
2023-04-30T04:59:01.546Z,13.11
2023-04-30T05:01:28.151Z,13.54
2023-04-30T05:03:55.162Z,12.95
2023-04-30T05:06:22.047Z,13.36
2023-04-30T05:08:48.683Z,13.51
2023-04-30T05:11:15.867Z,13.42
2023-04-30T05:13:42.653Z,13.70
2023-04-30T05:16:09.298Z,13.71
2023-04-30T05:18:35.926Z,13.58
2023-04-30T05:21:02.514Z,13.01
2023-04-30T05:23:29.258Z,13.14
2023-04-30T05:25:55.928Z,12.35
2023-04-30T05:28:22.570Z,11.56
2023-04-30T05:30:49.209Z,11.73
2023-04-30T05:33:15.850Z,12.74
2023-04-30T05:35:42.403Z,13.29
2023-04-30T05:38:09.044Z,14.16
2023-04-30T05:40:35.777Z,14.39
2023-04-30T05:43:02.431Z,14.24
2023-04-30T05:45:29.152Z,14.27
2023-04-30T05:47:55.892Z,14.16
2023-04-30T05:50:22.830Z,14.46
2023-04-30T05:52:49.504Z,14.72
2023-04-30T05:55:16.192Z,14.55
2023-04-30T05:57:42.767Z,14.51
2023-04-30T06:00:09.904Z,14.51
2023-04-30T06:02:36.655Z,14.58
2023-04-30T06:05:03.921Z,13.99
2023-04-30T06:07:30.829Z,13.30
2023-04-30T06:09:57.487Z,13.29
2023-04-30T06:12:24.451Z,12.86
2023-04-30T06:14:52.029Z,12.67
2023-04-30T06:17:18.671Z,12.28
2023-04-30T06:19:45.357Z,12.23
2023-04-30T06:22:12.916Z,12.26
2023-04-30T06:24:39.465Z,12.69
2023-04-30T06:27:06.143Z,12.75
2023-04-30T06:29:32.732Z,12.97
2023-04-30T06:31:59.558Z,13.19
2023-04-30T06:34:26.701Z,12.76
2023-04-30T06:36:53.303Z,13.18
2023-04-30T06:39:19.908Z,12.66
2023-04-30T06:41:47.411Z,12.17
2023-04-30T06:44:14.116Z,11.74
2023-04-30T06:46:40.943Z,11.77
2023-04-30T06:49:07.718Z,11.50
2023-04-30T06:51:34.355Z,12.18
2023-04-30T06:54:00.937Z,11.46
2023-04-30T06:56:27.520Z,11.05
2023-04-30T06:58:54.077Z,11.98
2023-04-30T07:01:20.699Z,11.39
2023-04-30T07:03:47.456Z,11.02
2023-04-30T07:06:14.635Z,11.22
2023-04-30T07:08:41.564Z,10.92
2023-04-30T07:11:08.146Z,10.90
2023-04-30T07:13:34.881Z,10.64
2023-04-30T07:16:01.714Z,10.49
2023-04-30T07:18:28.509Z,10.10
2023-04-30T07:20:55.253Z,10.41
2023-04-30T07:23:21.832Z,10.42
2023-04-30T07:25:48.736Z,10.13
2023-04-30T07:28:15.486Z,10.09
2023-04-30T07:30:42.621Z,9.92
2023-04-30T07:33:09.560Z,10.24
2023-04-30T07:35:36.688Z,10.07
2023-04-30T07:38:04.805Z,9.96
2023-04-30T07:40:36.347Z,10.07
2023-04-30T07:43:04.576Z,10.13
2023-04-30T07:45:31.871Z,9.90
2023-04-30T07:47:58.579Z,10.15
2023-04-30T07:50:25.423Z,10.52
2023-04-30T07:52:51.982Z,10.46
2023-04-30T07:55:18.712Z,10.60
2023-04-30T07:57:45.289Z,10.68
2023-04-30T08:00:13.457Z,10.59
2023-04-30T08:02:40.988Z,10.60
2023-04-30T08:05:08.179Z,10.81
2023-04-30T08:07:34.810Z,10.72
2023-04-30T08:10:01.403Z,10.70
2023-04-30T08:12:28.018Z,10.73
2023-04-30T08:15:05.374Z,10.59
2023-04-30T08:17:32.826Z,10.51
2023-04-30T08:20:00.694Z,10.36
2023-04-30T08:22:27.389Z,10.26
2023-04-30T08:24:55.652Z,9.87
2023-04-30T08:27:23.316Z,10.09
2023-04-30T08:29:49.908Z,10.22
2023-04-30T08:32:18.800Z,9.42
2023-04-30T08:34:46.267Z,9.77
2023-04-30T08:37:12.873Z,9.60
2023-04-30T08:39:39.543Z,9.29
2023-04-30T08:42:14.560Z,9.11
2023-04-30T08:44:44.025Z,9.12
2023-04-30T08:47:14.557Z,9.03
2023-04-30T08:49:41.781Z,8.95
2023-04-30T08:52:08.654Z,8.44
2023-04-30T08:54:37.064Z,8.61
2023-04-30T08:57:04.697Z,8.23
2023-04-30T08:59:31.628Z,8.24
2023-04-30T09:02:00.940Z,7.96
2023-04-30T09:04:28.101Z,7.60
2023-04-30T09:06:58.992Z,7.68
2023-04-30T09:09:31.717Z,7.39
2023-04-30T09:12:19.807Z,7.41
2023-04-30T09:15:13.182Z,7.95
2023-04-30T09:17:40.054Z,7.46
2023-04-30T09:20:12.276Z,7.01
2023-04-30T09:22:40.941Z,6.92
2023-04-30T09:25:09.763Z,7.03
2023-04-30T09:27:36.420Z,6.97
2023-04-30T09:30:03.741Z,6.83
2023-04-30T09:32:30.447Z,6.82
2023-04-30T09:34:57.098Z,6.64
2023-04-30T09:37:38.179Z,6.85
2023-04-30T09:40:05.182Z,6.38
2023-04-30T09:42:31.826Z,6.64
2023-04-30T09:44:58.527Z,6.55
2023-04-30T09:47:31.803Z,6.31
2023-04-30T09:50:00.140Z,6.45
2023-04-30T09:52:26.961Z,6.36
2023-04-30T09:54:53.635Z,6.11
2023-04-30T09:57:23.975Z,5.70
2023-04-30T09:59:53.162Z,5.73
2023-04-30T10:02:23.442Z,6.01
2023-04-30T10:04:58.608Z,5.81
2023-04-30T10:07:34.288Z,5.60
2023-04-30T10:10:08.819Z,5.82
2023-04-30T10:12:55.458Z,5.81
2023-04-30T10:15:32.604Z,5.50
2023-04-30T10:18:11.226Z,5.73
2023-04-30T10:20:39.988Z,5.95
2023-04-30T10:23:07.297Z,5.79
2023-04-30T10:25:34.673Z,5.91
2023-04-30T10:28:03.207Z,5.91
2023-04-30T10:30:32.774Z,6.01
2023-04-30T10:33:22.019Z,5.82
2023-04-30T10:35:59.319Z,5.64
2023-04-30T10:38:29.702Z,5.75
2023-04-30T10:41:01.317Z,5.56
2023-04-30T10:43:31.108Z,5.65
2023-04-30T10:45:58.713Z,5.75
2023-04-30T10:48:26.747Z,5.80
2023-04-30T10:50:56.703Z,5.83
2023-04-30T10:53:26.206Z,5.45
2023-04-30T10:56:09.136Z,5.36
2023-04-30T10:58:38.838Z,5.26
2023-04-30T11:01:14.818Z,5.71
2023-04-30T11:03:43.820Z,5.62
2023-04-30T11:06:16.020Z,5.48
2023-04-30T11:08:46.746Z,5.74
2023-04-30T11:11:23.765Z,5.25
2023-04-30T11:14:01.624Z,5.15
2023-04-30T11:16:35.137Z,5.26
2023-04-30T11:19:13.886Z,5.52
2023-04-30T11:22:05.174Z,5.33
2023-04-30T11:24:51.541Z,4.99
2023-04-30T11:27:26.123Z,5.14
2023-04-30T11:29:54.860Z,4.92
2023-04-30T11:32:23.858Z,4.68
2023-04-30T11:34:51.114Z,4.81
2023-04-30T11:37:28.119Z,4.94
2023-04-30T11:39:57.237Z,4.74
2023-04-30T11:42:23.871Z,4.98
2023-04-30T11:44:50.437Z,4.92
2023-04-30T11:47:17.015Z,4.80
2023-04-30T11:49:45.255Z,4.70
2023-04-30T11:52:14.816Z,5.00
2023-04-30T11:54:41.415Z,5.18
2023-04-30T11:57:08.127Z,4.97
2023-04-30T11:59:42.140Z,4.76
2023-04-30T12:02:10.460Z,4.65
2023-04-30T12:04:39.033Z,4.42
2023-04-30T12:07:08.799Z,4.66
2023-04-30T12:09:57.237Z,4.88
2023-04-30T12:12:30.479Z,4.71
2023-04-30T12:14:57.874Z,4.46
2023-04-30T12:17:32.733Z,4.42
2023-04-30T12:19:59.724Z,4.46
2023-04-30T12:22:27.605Z,4.43
2023-04-30T12:24:55.633Z,4.35
2023-04-30T12:27:22.896Z,4.25
2023-04-30T12:29:50.856Z,4.08
2023-04-30T12:32:19.229Z,4.09
2023-04-30T12:34:46.035Z,4.24
2023-04-30T12:37:16.481Z,3.88
2023-04-30T12:39:43.458Z,4.28
2023-04-30T12:42:10.273Z,4.23
2023-04-30T12:44:44.746Z,3.77
2023-04-30T12:47:12.162Z,3.74
2023-04-30T12:49:39.224Z,3.79
2023-04-30T12:52:09.473Z,3.81
2023-04-30T12:54:38.067Z,3.80
2023-04-30T12:57:07.436Z,3.38
2023-04-30T12:59:36.910Z,3.30
2023-04-30T13:02:11.184Z,3.28
2023-04-30T13:04:38.467Z,3.09
2023-04-30T13:07:05.430Z,3.18
2023-04-30T13:09:34.361Z,3.46
2023-04-30T13:12:01.208Z,3.39
2023-04-30T13:14:27.777Z,3.59
2023-04-30T13:16:54.691Z,3.24
2023-04-30T13:19:21.325Z,2.49
2023-04-30T13:21:47.955Z,2.09
2023-04-30T13:24:14.586Z,2.20
2023-04-30T13:26:41.277Z,2.42
2023-04-30T13:29:07.846Z,1.87
2023-04-30T13:31:34.696Z,1.80
2023-04-30T13:34:01.598Z,1.71
2023-04-30T13:36:29.263Z,1.83
2023-04-30T13:38:55.887Z,1.81
2023-04-30T13:41:22.546Z,2.10
2023-04-30T13:43:49.279Z,2.23
2023-04-30T13:46:16.730Z,2.03
2023-04-30T13:48:43.378Z,1.74
2023-04-30T13:51:09.952Z,1.64
2023-04-30T13:53:37.278Z,1.52
2023-04-30T13:56:04.043Z,1.29
2023-04-30T13:58:30.678Z,1.41
2023-04-30T14:00:57.243Z,1.52
2023-04-30T14:03:23.981Z,1.85
2023-04-30T14:05:50.945Z,1.82
2023-04-30T14:08:17.566Z,1.87
2023-04-30T14:10:44.555Z,1.70
2023-04-30T14:13:11.135Z,1.66
2023-04-30T14:15:38.625Z,1.72
2023-04-30T14:18:05.426Z,1.77
2023-04-30T14:20:32.066Z,1.52
2023-04-30T14:22:59.794Z,1.57
2023-04-30T14:25:27.474Z,1.78
2023-04-30T14:27:54.110Z,1.56
2023-04-30T14:30:20.843Z,1.59
2023-04-30T14:32:47.474Z,1.93
2023-04-30T14:35:14.057Z,2.07
2023-04-30T14:37:40.790Z,1.90
2023-04-30T14:40:09.576Z,2.23
2023-04-30T14:42:36.136Z,2.16
2023-04-30T14:45:02.848Z,1.72
2023-04-30T14:47:29.615Z,1.82
2023-04-30T14:49:58.790Z,1.72
2023-04-30T14:52:25.380Z,1.85
2023-04-30T14:54:52.067Z,1.64
2023-04-30T14:57:19.095Z,1.49
2023-04-30T14:59:45.716Z,1.83
2023-04-30T15:02:12.406Z,1.41
2023-04-30T15:04:39.110Z,1.50
2023-04-30T15:07:05.790Z,1.38
2023-04-30T15:09:32.506Z,1.32
2023-04-30T15:11:59.091Z,1.60
2023-04-30T15:14:25.716Z,1.66
2023-04-30T15:16:52.310Z,1.70
2023-04-30T15:19:19.016Z,1.42
2023-04-30T15:21:47.129Z,1.52
2023-04-30T15:24:16.101Z,1.49
2023-04-30T15:26:42.680Z,1.61
2023-04-30T15:29:10.540Z,1.31
2023-04-30T15:31:37.249Z,1.31
2023-04-30T15:34:03.925Z,1.48
2023-04-30T15:36:32.339Z,1.75
2023-04-30T15:38:59.347Z,1.67
2023-04-30T15:41:25.992Z,1.41
2023-04-30T15:43:52.614Z,1.53
2023-04-30T15:46:19.309Z,1.37
2023-04-30T15:48:45.939Z,1.44
2023-04-30T15:51:13.160Z,1.29
2023-04-30T15:53:40.890Z,1.29
2023-04-30T15:56:08.940Z,1.61
2023-04-30T15:58:35.531Z,1.52
2023-04-30T16:01:02.119Z,1.81
2023-04-30T16:03:28.793Z,1.79
2023-04-30T16:05:55.982Z,1.33
2023-04-30T16:08:22.769Z,1.45
2023-04-30T16:10:49.427Z,1.45
2023-04-30T16:13:16.025Z,1.62
2023-04-30T16:15:42.638Z,1.48
2023-04-30T16:18:09.958Z,1.46
2023-04-30T16:20:37.341Z,1.58
2023-04-30T16:23:04.825Z,1.59
2023-04-30T16:25:31.704Z,1.76
2023-04-30T16:27:58.432Z,1.58
2023-04-30T16:30:25.125Z,1.59
2023-04-30T16:32:51.784Z,1.67
2023-04-30T16:35:18.525Z,1.72
2023-04-30T16:37:45.133Z,1.93
2023-04-30T16:40:11.914Z,1.66
2023-04-30T16:42:38.499Z,1.65
2023-04-30T16:45:05.632Z,1.58
2023-04-30T16:47:32.310Z,1.45
2023-04-30T16:49:58.992Z,1.51
2023-04-30T16:52:25.771Z,1.79
2023-04-30T16:54:52.366Z,1.71
2023-04-30T16:57:19.029Z,1.82
2023-04-30T16:59:46.733Z,1.64
2023-04-30T17:02:13.353Z,1.64
2023-04-30T17:04:40.006Z,1.54
2023-04-30T17:07:07.031Z,1.44
2023-04-30T17:09:33.844Z,1.43
2023-04-30T17:12:00.439Z,1.50
2023-04-30T17:14:27.124Z,1.38
2023-04-30T17:16:53.698Z,1.36
2023-04-30T17:19:20.268Z,1.33
2023-04-30T17:21:46.890Z,1.51
2023-04-30T17:24:13.510Z,1.51
2023-04-30T17:26:40.141Z,1.65
2023-04-30T17:29:06.850Z,1.81
2023-04-30T17:31:33.608Z,1.64
2023-04-30T17:34:00.379Z,1.70
2023-04-30T17:36:30.384Z,1.67
2023-04-30T17:38:57.039Z,1.64
2023-04-30T17:41:24.352Z,1.67
2023-04-30T17:43:51.715Z,1.73
2023-04-30T17:46:18.386Z,1.72
2023-04-30T17:48:45.155Z,1.59
2023-04-30T17:51:12.040Z,1.74
2023-04-30T17:53:38.657Z,1.68
2023-04-30T17:56:05.679Z,1.82
2023-04-30T17:58:32.669Z,1.75
2023-04-30T18:01:01.522Z,1.91
2023-04-30T18:03:28.543Z,1.71
2023-04-30T18:05:55.537Z,2.00
2023-04-30T18:08:22.244Z,1.95
2023-04-30T18:10:48.961Z,1.90
2023-04-30T18:13:15.609Z,2.02
2023-04-30T18:15:42.610Z,2.08
2023-04-30T18:18:09.732Z,2.00
2023-04-30T18:20:37.000Z,2.10
2023-04-30T18:23:05.502Z,2.08
2023-04-30T18:25:34.228Z,2.12
2023-04-30T18:28:01.351Z,2.28
2023-04-30T18:30:27.998Z,2.19
2023-04-30T18:32:54.614Z,2.37
2023-04-30T18:35:22.160Z,2.36
2023-04-30T18:37:49.788Z,2.45
2023-04-30T18:40:16.527Z,2.58
2023-04-30T18:42:43.141Z,2.51
2023-04-30T18:45:11.385Z,2.31
2023-04-30T18:47:38.241Z,2.39
2023-04-30T18:50:06.479Z,2.56
2023-04-30T18:52:33.407Z,2.54
2023-04-30T18:54:59.975Z,2.50
2023-04-30T18:57:26.526Z,2.53
2023-04-30T18:59:53.393Z,2.79
2023-04-30T19:02:21.843Z,2.77
2023-04-30T19:04:49.831Z,2.72
2023-04-30T19:07:16.955Z,2.94
2023-04-30T19:09:45.163Z,2.82
2023-04-30T19:12:12.087Z,2.85
2023-04-30T19:14:38.650Z,2.77
2023-04-30T19:17:05.440Z,2.81
2023-04-30T19:19:32.417Z,2.63
2023-04-30T19:21:59.110Z,2.75
2023-04-30T19:24:25.801Z,2.68
2023-04-30T19:26:52.520Z,2.72
2023-04-30T19:29:19.716Z,2.81
2023-04-30T19:31:46.660Z,2.68
2023-04-30T19:34:13.970Z,2.65
2023-04-30T19:36:44.091Z,2.75
2023-04-30T19:39:11.783Z,2.67
2023-04-30T19:41:39.205Z,2.67
2023-04-30T19:44:06.320Z,3.01
2023-04-30T19:46:32.955Z,3.12
2023-04-30T19:48:59.988Z,3.19
2023-04-30T19:51:26.596Z,2.70
2023-04-30T19:53:53.247Z,2.53
2023-04-30T19:56:20.789Z,2.65
2023-04-30T19:58:48.379Z,2.62
2023-04-30T20:01:15.093Z,2.65
2023-04-30T20:03:42.526Z,2.78
2023-04-30T20:06:10.140Z,2.51
2023-04-30T20:08:37.566Z,2.33
2023-04-30T20:11:04.227Z,2.49
2023-04-30T20:13:31.121Z,2.69
2023-04-30T20:15:58.162Z,2.72
2023-04-30T20:18:24.962Z,2.56
2023-04-30T20:20:52.310Z,2.72
2023-04-30T20:23:20.312Z,2.56
2023-04-30T20:25:46.989Z,2.63
2023-04-30T20:28:18.187Z,2.69
2023-04-30T20:30:44.974Z,3.00
2023-04-30T20:33:12.863Z,3.41
2023-04-30T20:35:41.157Z,3.20
2023-04-30T20:38:08.569Z,3.34
2023-04-30T20:40:35.374Z,3.33
2023-04-30T20:43:02.041Z,3.25
2023-04-30T20:45:28.701Z,3.01
2023-04-30T20:47:55.756Z,3.14
2023-04-30T20:50:22.493Z,3.00
2023-04-30T20:52:49.121Z,3.18
2023-04-30T20:55:15.819Z,2.99
2023-04-30T20:57:42.444Z,3.07
2023-04-30T21:00:09.593Z,2.89
2023-04-30T21:02:36.480Z,3.00
2023-04-30T21:05:05.468Z,3.41
2023-04-30T21:07:35.907Z,3.39
2023-04-30T21:10:08.343Z,3.76
2023-04-30T21:12:35.457Z,4.01
2023-04-30T21:15:02.202Z,4.12
2023-04-30T21:17:29.139Z,3.52
2023-04-30T21:19:56.903Z,3.52
2023-04-30T21:22:24.585Z,3.19
2023-04-30T21:24:54.164Z,3.23
2023-04-30T21:27:21.588Z,3.39
2023-04-30T21:29:48.473Z,3.49
2023-04-30T21:32:15.172Z,3.48
2023-04-30T21:34:41.844Z,3.81
2023-04-30T21:37:08.474Z,3.90
2023-04-30T21:39:35.053Z,4.05
2023-04-30T21:42:01.693Z,4.12
2023-04-30T21:44:31.593Z,4.31
2023-04-30T21:46:58.945Z,4.74
2023-04-30T21:49:26.104Z,4.70
2023-04-30T21:51:52.700Z,4.94
2023-04-30T21:54:19.346Z,5.19
2023-04-30T21:56:46.014Z,5.10
2023-04-30T21:59:12.645Z,4.86
2023-04-30T22:01:40.905Z,4.27
2023-04-30T22:04:07.529Z,4.28
2023-04-30T22:06:34.825Z,4.24
2023-04-30T22:09:01.989Z,4.20
2023-04-30T22:11:29.128Z,4.00
2023-04-30T22:13:55.754Z,4.41
2023-04-30T22:16:22.882Z,4.52
2023-04-30T22:18:49.566Z,4.50
2023-04-30T22:21:16.333Z,4.22
2023-04-30T22:23:42.915Z,4.60
2023-04-30T22:26:11.215Z,4.65
2023-04-30T22:28:38.289Z,5.10
2023-04-30T22:31:05.036Z,5.09
2023-04-30T22:33:38.170Z,5.11
2023-04-30T22:36:06.155Z,4.71
2023-04-30T22:38:33.393Z,4.27
2023-04-30T22:41:00.518Z,4.27
2023-04-30T22:43:30.136Z,4.59
2023-04-30T22:45:58.705Z,4.85
2023-04-30T22:48:27.634Z,4.87
2023-04-30T22:50:55.448Z,5.36
2023-04-30T22:53:22.415Z,5.13
2023-04-30T22:55:49.691Z,4.56
2023-04-30T22:58:17.084Z,4.73
2023-04-30T23:00:43.712Z,4.63
2023-04-30T23:03:10.343Z,4.60
2023-04-30T23:05:37.009Z,4.67
2023-04-30T23:08:04.509Z,4.51
2023-04-30T23:10:31.317Z,4.70
2023-04-30T23:12:58.764Z,4.52
2023-04-30T23:15:26.187Z,4.34
2023-04-30T23:17:54.503Z,4.09
2023-04-30T23:20:22.644Z,4.21
2023-04-30T23:22:49.534Z,4.26
2023-04-30T23:25:16.921Z,4.66
2023-04-30T23:27:44.919Z,4.70
2023-04-30T23:30:11.921Z,4.81
2023-04-30T23:32:38.622Z,4.81
2023-04-30T23:35:07.575Z,4.81
2023-04-30T23:37:34.563Z,4.74
2023-04-30T23:40:01.507Z,4.72
2023-04-30T23:42:28.083Z,4.61
2023-04-30T23:44:54.682Z,4.74
2023-04-30T23:47:21.267Z,4.80
2023-04-30T23:49:48.081Z,4.52
2023-04-30T23:52:14.748Z,4.54
2023-04-30T23:54:41.377Z,4.45
2023-04-30T23:57:08.046Z,4.56
2023-04-30T23:59:34.645Z,4.76
